Time;durP1;ratioP1;P1;durP2;ratioP2;P2;SDS_P1;SDS_P2;PMS_P1;PMS_P2;Temp;Humidity;BMP_temperature;BMP_pressure;BME280_temperature;BME280_humidity;BME280_pressure;Samples;Min_cycle;Max_cycle;Signal;HPM_P1;HPM_P2
2023/01/07 00:02:06;;;;;;;19.00;13.68;;;12.10;96.70;;;;;;4963887;28;20520;-75
2023/01/07 00:04:34;;;;;;;18.30;13.25;;;12.20;96.70;;;;;;4965390;28;20074;-75
2023/01/07 00:07:03;;;;;;;18.73;12.82;;;12.30;96.70;;;;;;4959956;28;20520;-75
2023/01/07 00:09:31;;;;;;;17.15;12.30;;;12.20;96.70;;;;;;4964901;28;20058;-76
2023/01/07 00:12:00;;;;;;;16.88;12.65;;;12.20;96.70;;;;;;4966403;28;20448;-75
2023/01/07 00:14:27;;;;;;;15.18;12.02;;;12.20;96.70;;;;;;4965820;28;20042;-76
2023/01/07 00:16:55;;;;;;;20.35;13.50;;;12.20;96.70;;;;;;4966330;28;20073;-75
2023/01/07 00:19:23;;;;;;;18.42;13.05;;;12.10;96.70;;;;;;4965759;28;20125;-75
2023/01/07 00:21:51;;;;;;;18.92;13.05;;;12.10;96.70;;;;;;4967361;28;20047;-76
2023/01/07 00:24:20;;;;;;;20.58;12.75;;;12.10;96.70;;;;;;4974550;28;20047;-75
2023/01/07 00:26:48;;;;;;;16.95;12.93;;;12.10;96.70;;;;;;4948595;28;20512;-75
2023/01/07 00:29:17;;;;;;;20.15;13.65;;;12.10;96.70;;;;;;4966365;28;20059;-75
2023/01/07 00:31:45;;;;;;;18.25;13.10;;;12.20;96.70;;;;;;4952289;28;20134;-76
2023/01/07 00:34:13;;;;;;;18.45;13.35;;;12.20;96.70;;;;;;4961303;28;20559;-76
2023/01/07 00:36:42;;;;;;;19.75;13.75;;;12.20;96.70;;;;;;4965659;28;20038;-76
2023/01/07 00:39:13;;;;;;;17.63;12.73;;;12.30;96.70;;;;;;4965564;28;20138;-75
2023/01/07 00:44:32;;;;;;;18.65;12.30;;;12.30;96.70;;;;;;4938888;28;20059;-76
2023/01/07 00:47:00;;;;;;;16.17;11.88;;;12.30;96.70;;;;;;4954369;28;20043;-76
2023/01/07 00:49:28;;;;;;;17.05;12.93;;;12.40;96.70;;;;;;4964949;28;20065;-76
2023/01/07 00:51:56;;;;;;;19.27;12.68;;;12.30;96.70;;;;;;4945608;28;20701;-76
2023/01/07 00:54:31;;;;;;;15.65;12.10;;;12.40;96.70;;;;;;4930364;28;20054;-75
2023/01/07 00:57:01;;;;;;;15.48;12.13;;;12.40;96.70;;;;;;4952472;28;21066;-77
2023/01/07 00:59:28;;;;;;;16.30;12.40;;;12.40;96.70;;;;;;4947626;28;20050;-76
2023/01/07 01:01:56;;;;;;;17.00;12.10;;;12.40;96.70;;;;;;4964785;28;20050;-75
2023/01/07 01:04:24;;;;;;;16.48;12.15;;;12.40;96.70;;;;;;4953049;28;20062;-76
2023/01/07 01:06:52;;;;;;;15.40;12.30;;;12.40;96.70;;;;;;4965123;28;20121;-76
2023/01/07 01:09:21;;;;;;;15.68;11.85;;;12.40;96.70;;;;;;4965322;28;20046;-76
2023/01/07 01:11:49;;;;;;;15.48;11.73;;;12.40;96.70;;;;;;4965155;28;20576;-75
2023/01/07 01:14:18;;;;;;;15.35;12.15;;;12.40;96.70;;;;;;4953420;28;20039;-76
2023/01/07 01:16:46;;;;;;;18.67;12.68;;;12.50;96.70;;;;;;4970321;28;20061;-76
2023/01/07 01:19:14;;;;;;;18.83;13.02;;;12.50;96.70;;;;;;4944963;28;20106;-76
2023/01/07 01:21:42;;;;;;;18.17;12.77;;;12.50;96.70;;;;;;4964178;28;20049;-75
2023/01/07 01:24:10;;;;;;;17.30;12.52;;;12.40;96.70;;;;;;4963617;28;20081;-76
2023/01/07 01:26:38;;;;;;;16.52;12.13;;;12.40;96.70;;;;;;4947082;28;20101;-76
2023/01/07 01:29:06;;;;;;;17.83;12.15;;;12.40;96.70;;;;;;4947848;28;20106;-75
2023/01/07 01:31:35;;;;;;;16.25;11.95;;;12.40;96.70;;;;;;4951441;28;20047;-75
2023/01/07 01:34:04;;;;;;;15.48;11.52;;;12.40;96.70;;;;;;4950273;28;20590;-75
2023/01/07 01:36:34;;;;;;;18.73;12.55;;;12.40;96.70;;;;;;4963567;28;20112;-75
2023/01/07 01:39:03;;;;;;;16.42;11.63;;;12.40;96.70;;;;;;4965997;28;20043;-76
2023/01/07 01:41:34;;;;;;;16.50;11.63;;;12.40;96.70;;;;;;4968061;28;20090;-75
2023/01/07 01:44:37;;;;;;;15.88;11.13;;;12.40;96.70;;;;;;4962521;28;20141;-75
2023/01/07 01:47:16;;;;;;;14.13;10.40;;;12.40;96.70;;;;;;4952750;28;20420;-75
2023/01/07 01:49:48;;;;;;;14.07;11.18;;;12.30;96.70;;;;;;4958788;28;20142;-75
2023/01/07 01:52:20;;;;;;;14.40;12.02;;;12.30;96.70;;;;;;4937000;28;20145;-75
2023/01/07 01:54:52;;;;;;;16.05;11.63;;;12.30;96.70;;;;;;4958516;28;20059;-75
2023/01/07 01:57:21;;;;;;;15.35;11.02;;;12.40;96.70;;;;;;4935078;28;20057;-75
2023/01/07 01:59:54;;;;;;;15.93;11.02;;;12.40;96.70;;;;;;4961445;28;20054;-75
2023/01/07 02:02:30;;;;;;;13.90;10.68;;;12.40;96.70;;;;;;4963555;28;20043;-75
2023/01/07 02:04:58;;;;;;;15.65;10.50;;;12.40;96.70;;;;;;4955319;28;20047;-76
2023/01/07 02:07:26;;;;;;;16.38;11.07;;;12.40;96.70;;;;;;4951157;28;20073;-75
2023/01/07 02:10:00;;;;;;;13.55;10.82;;;12.40;96.70;;;;;;4927675;28;20047;-75
2023/01/07 02:12:45;;;;;;;18.42;11.82;;;12.40;96.70;;;;;;4932164;28;20051;-75
2023/01/07 02:15:16;;;;;;;14.35;11.25;;;12.40;96.70;;;;;;4945453;28;20166;-75
2023/01/07 02:18:03;;;;;;;17.23;11.32;;;12.40;96.70;;;;;;4964218;28;20047;-75
2023/01/07 02:20:58;;;;;;;15.38;11.75;;;12.40;96.70;;;;;;4953772;28;20142;-75
2023/01/07 02:24:06;;;;;;;16.00;11.15;;;12.40;96.70;;;;;;4959243;28;20038;-75
2023/01/07 02:27:09;;;;;;;15.57;11.00;;;12.30;96.70;;;;;;4946658;28;20054;-76
2023/01/07 02:30:24;;;;;;;16.40;11.43;;;12.30;96.70;;;;;;4951264;28;20061;-77
2023/01/07 02:33:23;;;;;;;18.98;12.30;;;12.30;96.70;;;;;;4961976;28;20077;-77
2023/01/07 02:36:23;;;;;;;15.73;11.93;;;12.30;96.70;;;;;;4905805;29;20055;-75
2023/01/07 02:39:05;;;;;;;13.70;11.18;;;12.20;96.70;;;;;;4919793;28;20082;-76
2023/01/07 02:41:43;;;;;;;18.35;11.57;;;12.20;96.70;;;;;;4926764;29;20146;-76
2023/01/07 02:44:21;;;;;;;15.70;11.68;;;12.20;96.70;;;;;;4924039;29;20043;-75
2023/01/07 02:46:55;;;;;;;15.57;11.93;;;12.30;96.70;;;;;;4925633;29;20166;-76
2023/01/07 02:49:24;;;;;;;16.45;11.80;;;12.30;96.70;;;;;;4926943;29;20059;-75
2023/01/07 02:51:53;;;;;;;18.38;12.13;;;12.30;96.70;;;;;;4923626;29;20044;-76
2023/01/07 02:54:24;;;;;;;13.27;10.23;;;12.30;96.70;;;;;;4925947;29;20059;-77
2023/01/07 02:57:23;;;;;;;14.45;11.43;;;12.20;96.70;;;;;;4926682;29;20051;-76
2023/01/07 03:00:05;;;;;;;13.32;10.65;;;12.20;96.70;;;;;;4943780;29;20048;-76
2023/01/07 03:03:01;;;;;;;15.93;11.40;;;12.30;96.70;;;;;;4926131;29;20533;-76
2023/01/07 03:05:46;;;;;;;12.77;10.55;;;12.30;96.70;;;;;;4919104;29;20436;-76
2023/01/07 03:08:41;;;;;;;17.48;12.20;;;12.30;96.70;;;;;;4925566;29;20051;-76
2023/01/07 03:11:10;;;;;;;17.70;11.93;;;12.30;96.70;;;;;;4906991;29;20074;-75
2023/01/07 03:13:46;;;;;;;15.13;12.02;;;12.30;96.70;;;;;;4926361;29;20067;-75
2023/01/07 03:16:20;;;;;;;21.43;12.87;;;12.30;96.70;;;;;;4926358;28;20063;-75
2023/01/07 03:18:54;;;;;;;16.42;12.13;;;12.30;96.70;;;;;;4930422;29;20049;-76
2023/01/07 03:21:26;;;;;;;21.13;13.88;;;12.40;96.70;;;;;;4930316;29;20051;-77
2023/01/07 03:23:57;;;;;;;16.75;13.45;;;12.30;96.70;;;;;;4930315;29;20051;-75
2023/01/07 03:26:31;;;;;;;18.67;13.95;;;12.30;96.70;;;;;;4929198;29;20059;-75
2023/01/07 03:29:01;;;;;;;16.95;13.07;;;12.30;96.70;;;;;;4947107;29;20442;-76
2023/01/07 03:31:31;;;;;;;18.65;14.38;;;12.30;96.70;;;;;;4945497;28;20055;-76
2023/01/07 03:34:03;;;;;;;19.65;14.10;;;12.30;96.70;;;;;;4954633;28;20065;-77
2023/01/07 03:36:38;;;;;;;18.75;14.25;;;12.30;96.70;;;;;;4964462;28;20142;-77
2023/01/07 03:39:09;;;;;;;18.23;14.95;;;12.30;96.70;;;;;;4958082;28;20069;-76
2023/01/07 03:44:25;;;;;;;18.08;14.10;;;12.40;96.70;;;;;;4967035;28;20047;-76
2023/01/07 03:46:53;;;;;;;18.08;13.55;;;12.30;96.70;;;;;;4976834;28;20055;-76
2023/01/07 03:49:21;;;;;;;17.80;13.60;;;12.30;96.70;;;;;;4949905;28;20133;-77
2023/01/07 03:51:53;;;;;;;17.63;13.90;;;12.40;96.70;;;;;;4970576;28;20049;-76
2023/01/07 03:54:22;;;;;;;18.40;13.88;;;12.40;96.70;;;;;;4949120;28;20106;-76
2023/01/07 03:56:50;;;;;;;16.13;13.75;;;12.40;96.70;;;;;;4950452;28;20141;-75
2023/01/07 03:59:18;;;;;;;17.90;13.93;;;12.40;96.70;;;;;;4971016;28;20050;-76
2023/01/07 04:01:47;;;;;;;18.25;14.13;;;12.40;96.70;;;;;;4951436;28;20503;-75
2023/01/07 04:04:15;;;;;;;18.05;13.95;;;12.30;96.70;;;;;;4968963;28;20090;-75
2023/01/07 04:06:43;;;;;;;19.50;14.18;;;12.30;96.70;;;;;;4941118;28;20079;-76
2023/01/07 04:09:14;;;;;;;20.55;13.80;;;12.30;96.70;;;;;;4973096;28;20444;-75
2023/01/07 04:11:42;;;;;;;19.73;13.93;;;12.30;96.70;;;;;;4965198;28;20055;-76
2023/01/07 04:14:11;;;;;;;17.45;13.68;;;12.40;96.70;;;;;;4966384;28;20053;-76
2023/01/07 04:16:39;;;;;;;17.52;13.02;;;12.30;96.70;;;;;;4972656;28;20055;-77
2023/01/07 04:19:07;;;;;;;18.05;14.00;;;12.30;96.70;;;;;;4953259;28;20058;-75
2023/01/07 04:21:35;;;;;;;15.73;13.63;;;12.30;96.70;;;;;;4957189;28;20094;-75
2023/01/07 04:24:05;;;;;;;16.42;12.45;;;12.30;96.70;;;;;;4961896;28;20038;-76
2023/01/07 04:26:35;;;;;;;18.27;12.80;;;12.30;96.70;;;;;;4961268;28;20053;-75
2023/01/07 04:29:04;;;;;;;16.95;13.05;;;12.30;96.70;;;;;;4950903;28;20907;-76
2023/01/07 04:31:32;;;;;;;16.25;12.68;;;12.30;96.70;;;;;;4967087;28;20516;-76
2023/01/07 04:34:01;;;;;;;17.58;12.25;;;12.30;96.70;;;;;;4957474;28;20082;-75
2023/01/07 04:36:30;;;;;;;18.15;11.40;;;12.40;96.70;;;;;;4961922;28;20042;-76
2023/01/07 04:38:58;;;;;;;13.95;10.93;;;12.30;96.70;;;;;;4963702;28;20130;-75
2023/01/07 04:41:27;;;;;;;14.98;11.43;;;12.30;96.70;;;;;;4969684;28;20420;-76
2023/01/07 04:43:58;;;;;;;16.05;10.85;;;12.20;96.70;;;;;;4967587;28;20055;-76
2023/01/07 04:46:26;;;;;;;12.68;9.60;;;12.30;96.70;;;;;;4965702;28;20718;-75
2023/01/07 04:48:54;;;;;;;13.13;9.73;;;12.40;96.70;;;;;;4965546;28;20039;-76
2023/01/07 04:51:23;;;;;;;12.90;10.05;;;12.30;96.70;;;;;;4949021;28;20393;-76
2023/01/07 04:53:52;;;;;;;11.25;8.98;;;12.30;96.70;;;;;;4953623;28;20053;-76
2023/01/07 04:56:20;;;;;;;13.93;10.27;;;12.30;96.70;;;;;;4965757;28;20055;-76
2023/01/07 04:58:49;;;;;;;14.60;10.98;;;12.20;96.70;;;;;;4965857;28;20061;-75
2023/01/07 05:01:19;;;;;;;12.90;8.77;;;12.20;96.70;;;;;;4950196;28;20048;-76
2023/01/07 05:03:47;;;;;;;11.63;9.25;;;12.30;96.70;;;;;;4934746;28;20057;-76
2023/01/07 05:06:16;;;;;;;11.95;9.13;;;12.30;96.70;;;;;;4964901;28;20057;-77
2023/01/07 05:08:44;;;;;;;11.55;8.88;;;12.30;96.70;;;;;;4949502;28;20146;-78
2023/01/07 05:11:12;;;;;;;12.60;9.52;;;12.30;96.70;;;;;;4949702;28;20053;-77
2023/01/07 05:13:42;;;;;;;13.07;8.63;;;12.30;96.70;;;;;;4957595;28;20046;-77
2023/01/07 05:16:10;;;;;;;13.80;9.10;;;12.30;96.70;;;;;;4972230;28;20046;-76
2023/01/07 05:18:41;;;;;;;13.95;8.77;;;12.30;96.70;;;;;;4948456;28;20059;-77
2023/01/07 05:21:09;;;;;;;11.82;8.45;;;12.30;96.70;;;;;;4963357;28;20078;-78
2023/01/07 05:23:38;;;;;;;11.13;8.80;;;12.30;96.70;;;;;;4956152;28;20047;-76
2023/01/07 05:26:06;;;;;;;12.77;8.75;;;12.30;96.70;;;;;;4954713;28;20062;-77
2023/01/07 05:28:34;;;;;;;11.65;8.73;;;12.30;96.70;;;;;;4963540;28;20150;-76
2023/01/07 05:31:02;;;;;;;10.35;8.30;;;12.30;96.70;;;;;;4952122;28;20046;-76
2023/01/07 05:33:31;;;;;;;12.20;8.30;;;12.30;96.70;;;;;;4947375;28;20495;-76
2023/01/07 05:36:00;;;;;;;9.85;7.97;;;12.30;96.70;;;;;;4954694;28;20053;-76
2023/01/07 05:38:29;;;;;;;12.57;8.80;;;12.30;96.70;;;;;;4942622;28;20550;-77
2023/01/07 05:40:57;;;;;;;10.45;8.18;;;12.30;96.70;;;;;;4966959;28;20471;-76
2023/01/07 05:43:26;;;;;;;11.45;9.05;;;12.30;96.70;;;;;;4952721;28;20109;-77
2023/01/07 05:45:58;;;;;;;12.50;8.60;;;12.30;96.70;;;;;;4964768;28;20470;-76
2023/01/07 05:48:26;;;;;;;11.93;8.32;;;12.20;96.70;;;;;;4969754;28;20165;-77
2023/01/07 05:50:54;;;;;;;13.02;8.48;;;12.20;96.70;;;;;;4938165;28;20131;-77
2023/01/07 05:53:23;;;;;;;10.55;7.90;;;12.20;96.70;;;;;;4963962;28;20043;-77
2023/01/07 05:55:55;;;;;;;9.20;7.95;;;12.20;96.70;;;;;;4963985;28;20046;-77
2023/01/07 05:58:24;;;;;;;13.43;8.70;;;12.20;96.70;;;;;;4956305;28;20673;-77
2023/01/07 06:00:51;;;;;;;12.80;8.80;;;12.20;96.70;;;;;;4950202;28;20872;-78
2023/01/07 06:03:20;;;;;;;15.40;9.02;;;12.20;96.70;;;;;;4963779;28;20669;-77
2023/01/07 06:05:48;;;;;;;13.27;9.02;;;12.30;96.70;;;;;;4947219;28;20050;-76
2023/01/07 06:08:16;;;;;;;14.75;8.38;;;12.20;96.70;;;;;;4954149;28;20158;-76
2023/01/07 06:10:45;;;;;;;13.40;9.43;;;12.20;96.70;;;;;;4963754;28;20126;-77
2023/01/07 06:13:13;;;;;;;10.55;8.70;;;12.20;96.70;;;;;;4968521;28;20052;-77
2023/01/07 06:15:41;;;;;;;14.73;8.57;;;12.20;96.70;;;;;;4963214;28;20043;-76
2023/01/07 06:18:09;;;;;;;9.93;8.05;;;12.10;96.70;;;;;;4963500;28;20054;-77
2023/01/07 06:20:37;;;;;;;12.63;8.57;;;12.20;96.70;;;;;;4945198;28;20039;-76
2023/01/07 06:23:05;;;;;;;12.38;8.70;;;12.20;96.70;;;;;;4946747;28;20061;-76
2023/01/07 06:25:33;;;;;;;13.73;9.07;;;12.10;96.70;;;;;;4964015;28;20035;-77
2023/01/07 06:28:02;;;;;;;12.23;8.25;;;12.10;96.70;;;;;;4966055;28;20051;-76
2023/01/07 06:30:30;;;;;;;11.23;9.15;;;12.10;96.70;;;;;;4942336;28;20038;-76
2023/01/07 06:32:58;;;;;;;12.27;8.82;;;12.10;96.70;;;;;;4963460;28;20452;-77
2023/01/07 06:35:26;;;;;;;9.70;8.50;;;12.20;96.70;;;;;;4963749;28;20063;-77
2023/01/07 06:37:54;;;;;;;10.98;8.02;;;12.20;96.70;;;;;;4968027;28;20042;-76
2023/01/07 06:40:22;;;;;;;11.00;8.30;;;12.20;96.70;;;;;;4967927;28;20498;-77
2023/01/07 06:42:50;;;;;;;10.88;8.18;;;12.20;96.70;;;;;;4949836;28;20073;-77
2023/01/07 06:45:19;;;;;;;10.80;8.35;;;12.20;96.70;;;;;;4964039;28;20039;-76
2023/01/07 06:47:47;;;;;;;11.45;7.93;;;12.20;96.70;;;;;;4944872;28;20054;-76
2023/01/07 06:50:16;;;;;;;11.00;7.60;;;12.20;96.70;;;;;;4963711;28;20047;-76
2023/01/07 06:52:43;;;;;;;9.30;7.95;;;12.20;96.70;;;;;;4972544;28;20555;-75
2023/01/07 06:55:11;;;;;;;13.13;9.25;;;12.20;96.70;;;;;;4972019;28;20516;-76
2023/01/07 06:57:40;;;;;;;9.50;7.85;;;12.20;96.70;;;;;;4949912;28;20050;-77
2023/01/07 07:00:09;;;;;;;12.77;8.60;;;12.20;96.70;;;;;;4951469;28;20047;-76
2023/01/07 07:02:38;;;;;;;12.90;8.10;;;12.20;96.70;;;;;;4966851;28;20078;-76
2023/01/07 07:05:06;;;;;;;12.23;8.35;;;12.20;96.70;;;;;;4967326;28;20051;-76
2023/01/07 07:07:34;;;;;;;12.32;8.77;;;12.30;96.70;;;;;;4951026;28;20516;-76
2023/01/07 07:10:06;;;;;;;11.55;9.63;;;12.30;96.70;;;;;;4969545;28;20106;-76
2023/01/07 07:12:34;;;;;;;11.40;9.20;;;12.30;96.70;;;;;;4967495;28;20587;-77
2023/01/07 07:15:02;;;;;;;13.38;9.90;;;12.30;96.70;;;;;;4960461;28;20500;-76
2023/01/07 07:17:30;;;;;;;11.60;10.05;;;12.30;96.70;;;;;;4968382;28;20055;-77
2023/01/07 07:20:00;;;;;;;13.82;10.93;;;12.30;96.70;;;;;;4965438;28;20050;-77
2023/01/07 07:22:28;;;;;;;13.77;10.70;;;12.30;96.70;;;;;;4960753;28;20050;-77
2023/01/07 07:24:56;;;;;;;13.35;10.25;;;12.30;96.70;;;;;;4954993;28;20054;-77
2023/01/07 07:27:24;;;;;;;13.98;11.50;;;12.20;96.70;;;;;;4956588;28;20066;-77
2023/01/07 07:29:52;;;;;;;17.85;12.80;;;12.20;96.70;;;;;;4949763;28;20141;-76
2023/01/07 07:32:20;;;;;;;16.60;11.98;;;12.20;96.70;;;;;;4965764;28;20039;-76
2023/01/07 07:34:48;;;;;;;16.58;12.77;;;12.20;96.70;;;;;;4970847;28;20053;-77
2023/01/07 07:37:17;;;;;;;14.57;12.93;;;12.20;96.70;;;;;;4939661;28;20555;-77
2023/01/07 07:39:45;;;;;;;15.77;12.68;;;12.20;96.70;;;;;;4965045;28;20047;-77
2023/01/07 07:42:13;;;;;;;15.95;12.10;;;12.20;96.70;;;;;;4965918;28;20050;-76
2023/01/07 07:44:43;;;;;;;13.18;11.27;;;12.30;96.70;;;;;;4953806;28;20051;-76
2023/01/07 07:47:11;;;;;;;15.13;12.10;;;12.30;96.70;;;;;;4973635;28;20046;-76
2023/01/07 07:49:39;;;;;;;17.75;13.25;;;12.30;96.70;;;;;;4974363;28;20697;-77
2023/01/07 07:52:07;;;;;;;17.15;12.45;;;12.30;96.70;;;;;;4951677;28;20536;-76
2023/01/07 07:54:36;;;;;;;17.63;13.10;;;12.20;96.70;;;;;;4960735;28;20459;-76
2023/01/07 07:57:04;;;;;;;14.05;12.55;;;12.20;96.70;;;;;;4964414;28;20043;-79
2023/01/07 07:59:32;;;;;;;15.50;12.35;;;12.20;96.70;;;;;;4948300;28;20125;-76
2023/01/07 08:02:00;;;;;;;15.20;12.32;;;12.20;96.70;;;;;;4968210;28;20504;-76
2023/01/07 08:04:28;;;;;;;18.02;12.85;;;12.20;96.70;;;;;;4965907;28;20054;-76
2023/01/07 08:06:56;;;;;;;15.13;12.30;;;12.20;96.70;;;;;;4964713;28;20536;-75
2023/01/07 08:09:23;;;;;;;15.63;13.13;;;12.20;96.70;;;;;;4959719;28;20128;-76
2023/01/07 08:11:54;;;;;;;15.98;12.98;;;12.30;96.70;;;;;;4964662;28;20047;-75
2023/01/07 08:14:27;;;;;;;16.38;12.27;;;12.30;96.70;;;;;;4978591;28;20101;-76
2023/01/07 08:16:55;;;;;;;14.07;12.32;;;12.30;96.70;;;;;;4964739;28;20067;-77
2023/01/07 08:19:34;;;;;;;13.27;11.48;;;12.30;96.70;;;;;;4920433;29;20048;-76
2023/01/07 08:22:02;;;;;;;14.30;11.88;;;12.30;96.70;;;;;;4913863;29;20048;-76
2023/01/07 08:24:30;;;;;;;16.95;11.93;;;12.30;96.70;;;;;;4919176;29;20075;-78
2023/01/07 08:26:59;;;;;;;14.13;11.45;;;12.40;96.70;;;;;;4918922;29;20070;-78
2023/01/07 08:29:28;;;;;;;13.52;11.18;;;12.40;96.70;;;;;;4901903;29;20839;-78
2023/01/07 08:31:55;;;;;;;13.38;10.23;;;12.40;96.70;;;;;;4924042;29;20093;-76
2023/01/07 08:34:23;;;;;;;12.52;10.38;;;12.40;96.70;;;;;;4928109;29;20122;-76
2023/01/07 08:36:51;;;;;;;13.32;11.77;;;12.40;96.70;;;;;;4920078;29;20043;-76
2023/01/07 08:39:19;;;;;;;17.48;13.98;;;12.40;96.70;;;;;;4922599;29;20131;-76
2023/01/07 08:41:47;;;;;;;14.73;12.77;;;12.40;96.70;;;;;;4923049;29;20059;-75
2023/01/07 08:44:16;;;;;;;24.50;19.55;;;12.40;96.70;;;;;;4923193;29;20620;-75
2023/01/07 08:46:44;;;;;;;35.13;26.38;;;12.40;96.70;;;;;;4923241;29;20060;-75
2023/01/07 08:49:12;;;;;;;42.60;29.33;;;12.50;96.70;;;;;;4923112;29;20446;-77
2023/01/07 08:51:40;;;;;;;26.88;20.15;;;12.50;96.70;;;;;;4963111;28;20055;-76
2023/01/07 08:54:08;;;;;;;24.35;18.25;;;12.50;96.70;;;;;;4965159;28;20043;-76
2023/01/07 08:56:35;;;;;;;20.70;15.15;;;12.50;96.70;;;;;;4952067;28;20039;-76
2023/01/07 08:59:03;;;;;;;17.25;13.48;;;12.50;96.70;;;;;;4948584;28;20061;-76
2023/01/07 09:01:33;;;;;;;18.25;13.75;;;12.50;96.70;;;;;;4953658;28;20133;-77
2023/01/07 09:04:01;;;;;;;19.02;12.32;;;12.50;96.70;;;;;;4965974;28;20046;-77
2023/01/07 09:06:29;;;;;;;15.95;11.75;;;12.60;96.70;;;;;;4946840;28;20085;-78
2023/01/07 09:08:56;;;;;;;15.48;11.88;;;12.60;96.70;;;;;;4955660;28;20146;-79
2023/01/07 09:11:24;;;;;;;17.40;13.00;;;12.60;96.70;;;;;;4964770;28;20449;-77
2023/01/07 09:13:52;;;;;;;28.02;19.13;;;12.60;96.70;;;;;;4964741;28;20039;-78
2023/01/07 09:16:20;;;;;;;33.17;21.33;;;12.70;96.70;;;;;;4963775;28;20038;-80
2023/01/07 09:18:50;;;;;;;28.80;19.13;;;12.70;96.70;;;;;;4973901;28;20080;-77
2023/01/07 09:21:17;;;;;;;33.92;22.33;;;12.70;96.70;;;;;;4970967;28;20638;-78
2023/01/07 09:23:45;;;;;;;37.33;24.45;;;12.80;96.70;;;;;;4964288;28;20046;-77
2023/01/07 09:26:13;;;;;;;36.45;23.42;;;12.90;96.70;;;;;;4962750;28;20062;-77
2023/01/07 09:28:41;;;;;;;35.47;24.63;;;12.90;96.70;;;;;;4941565;28;20055;-79
2023/01/07 09:31:09;;;;;;;30.05;19.75;;;12.90;96.70;;;;;;4961316;28;20536;-76
2023/01/07 09:33:39;;;;;;;22.38;16.45;;;12.90;96.70;;;;;;4962929;28;20137;-76
2023/01/07 09:36:09;;;;;;;17.27;13.18;;;12.90;96.70;;;;;;4962722;28;20271;-78
2023/01/07 09:38:37;;;;;;;13.98;10.80;;;13.00;96.70;;;;;;4949698;28;20042;-78
2023/01/07 09:41:21;;;;;;;14.98;9.90;;;13.00;96.70;;;;;;4930668;28;20057;-78
2023/01/07 09:43:55;;;;;;;16.45;9.38;;;13.00;96.70;;;;;;4964679;28;20129;-78
2023/01/07 09:46:29;;;;;;;10.18;9.18;;;12.90;96.70;;;;;;4946896;28;20452;-79
2023/01/07 09:49:02;;;;;;;10.38;8.57;;;12.80;96.70;;;;;;4964434;28;20548;-77
2023/01/07 09:51:36;;;;;;;10.63;9.18;;;12.90;96.70;;;;;;4964262;28;20082;-77
2023/01/07 09:54:17;;;;;;;12.32;9.40;;;12.80;96.70;;;;;;4963356;28;20043;-77
2023/01/07 09:56:45;;;;;;;11.55;8.25;;;12.80;96.70;;;;;;4958567;28;20520;-75
2023/01/07 09:59:14;;;;;;;10.60;8.45;;;12.80;96.70;;;;;;4967493;28;20077;-74
2023/01/07 10:01:47;;;;;;;12.07;8.60;;;12.80;96.70;;;;;;4958203;28;20136;-74
2023/01/07 10:04:27;;;;;;;11.30;8.00;;;12.70;96.70;;;;;;4963428;28;20045;-76
2023/01/07 10:07:07;;;;;;;10.13;7.28;;;12.80;96.70;;;;;;4948824;28;20573;-74
2023/01/07 10:09:46;;;;;;;10.05;7.03;;;12.70;96.70;;;;;;4964070;28;20051;-76
2023/01/07 10:12:21;;;;;;;7.93;6.47;;;12.80;96.70;;;;;;4963699;28;20070;-75
2023/01/07 10:15:07;;;;;;;9.65;7.00;;;12.70;96.70;;;;;;4945018;28;20055;-76
2023/01/07 10:17:51;;;;;;;7.35;6.47;;;12.80;96.70;;;;;;4963719;28;20062;-75
2023/01/07 10:20:29;;;;;;;7.75;6.15;;;12.80;96.70;;;;;;4969539;28;20411;-77
2023/01/07 10:23:03;;;;;;;10.88;6.68;;;12.80;96.70;;;;;;4963674;28;20311;-75
2023/01/07 10:25:35;;;;;;;7.40;6.63;;;12.80;96.70;;;;;;4965468;28;20050;-75
2023/01/07 10:28:08;;;;;;;7.97;6.85;;;12.80;96.70;;;;;;4959854;28;20097;-75
2023/01/07 10:30:41;;;;;;;8.85;7.03;;;12.80;96.70;;;;;;4960075;28;20070;-76
2023/01/07 10:33:18;;;;;;;10.40;7.00;;;12.80;96.70;;;;;;4954228;28;20105;-75
2023/01/07 10:35:52;;;;;;;10.10;6.93;;;12.80;96.70;;;;;;4965741;28;20852;-74
2023/01/07 10:38:24;;;;;;;8.65;7.35;;;12.90;96.70;;;;;;4975774;28;20116;-75
2023/01/07 10:40:55;;;;;;;10.63;7.05;;;12.80;96.70;;;;;;4980919;28;20411;-74
2023/01/07 10:43:37;;;;;;;8.95;6.55;;;12.90;96.70;;;;;;4981181;28;20039;-75
2023/01/07 10:46:25;;;;;;;8.98;6.55;;;12.80;96.70;;;;;;4975019;28;20097;-74
2023/01/07 10:49:17;;;;;;;8.57;6.78;;;12.90;96.70;;;;;;4945658;28;20595;-75
2023/01/07 10:52:08;;;;;;;10.60;7.43;;;12.90;96.70;;;;;;4954928;28;20236;-75
2023/01/07 10:55:03;;;;;;;9.15;7.07;;;12.90;96.70;;;;;;4957247;28;20073;-74
2023/01/07 10:57:31;;;;;;;10.57;6.90;;;12.90;96.70;;;;;;4968176;28;20035;-72
2023/01/07 11:00:03;;;;;;;18.30;9.77;;;12.90;96.70;;;;;;4966762;28;20039;-73
2023/01/07 11:02:31;;;;;;;9.73;7.35;;;12.80;96.70;;;;;;4947514;28;20105;-73
2023/01/07 11:04:59;;;;;;;11.25;7.32;;;13.00;96.70;;;;;;4969083;28;20375;-73
2023/01/07 11:07:32;;;;;;;8.57;7.35;;;13.00;96.70;;;;;;4961934;28;20082;-73
2023/01/07 11:10:04;;;;;;;15.52;11.27;;;12.90;96.70;;;;;;4936821;28;20090;-72
2023/01/07 11:12:37;;;;;;;13.45;9.63;;;12.90;96.70;;;;;;4957939;28;20056;-71
2023/01/07 11:15:13;;;;;;;12.65;8.93;;;13.00;96.70;;;;;;4947262;28;20098;-73
2023/01/07 11:17:45;;;;;;;11.70;8.17;;;13.00;96.70;;;;;;4954019;28;20054;-71
2023/01/07 11:20:13;;;;;;;12.00;7.60;;;12.90;96.70;;;;;;4974522;28;20838;-71
2023/01/07 11:22:40;;;;;;;9.88;7.28;;;12.80;96.70;;;;;;4970978;28;20046;-71
2023/01/07 11:25:27;;;;;;;9.38;7.13;;;12.90;96.70;;;;;;4951733;28;20058;-71
2023/01/07 11:27:56;;;;;;;10.07;7.03;;;13.00;96.70;;;;;;4968749;28;20042;-71
2023/01/07 11:30:27;;;;;;;11.07;7.65;;;13.10;96.70;;;;;;4959833;28;20065;-71
2023/01/07 11:32:58;;;;;;;9.48;7.32;;;13.20;96.70;;;;;;4966062;28;20612;-72
2023/01/07 11:35:27;;;;;;;14.50;9.30;;;13.20;96.70;;;;;;4981547;28;20058;-72
2023/01/07 11:37:57;;;;;;;11.40;8.40;;;13.30;96.70;;;;;;4980419;28;20070;-72
2023/01/07 11:40:28;;;;;;;13.07;9.10;;;13.20;96.70;;;;;;4973557;28;20038;-72
2023/01/07 11:42:58;;;;;;;10.60;7.43;;;13.20;96.70;;;;;;4969853;28;20042;-72
2023/01/07 11:45:28;;;;;;;11.38;8.68;;;13.20;96.70;;;;;;4973722;28;20058;-72
2023/01/07 11:47:59;;;;;;;11.05;8.77;;;13.20;96.70;;;;;;4978312;28;20058;-71
2023/01/07 11:50:33;;;;;;;10.88;9.25;;;13.20;96.70;;;;;;4968960;28;20042;-72
2023/01/07 11:53:21;;;;;;;10.70;8.52;;;13.20;96.70;;;;;;4962673;28;20053;-72
2023/01/07 11:55:58;;;;;;;12.18;9.00;;;13.20;96.70;;;;;;4958744;28;20057;-71
2023/01/07 11:58:28;;;;;;;8.48;7.03;;;13.20;96.70;;;;;;4978640;28;20400;-72
2023/01/07 12:01:15;;;;;;;10.35;6.47;;;13.20;96.70;;;;;;4975293;28;20054;-72
2023/01/07 12:03:56;;;;;;;7.97;6.43;;;13.20;96.70;;;;;;4972097;28;20061;-71
2023/01/07 12:06:28;;;;;;;9.73;7.65;;;13.20;96.70;;;;;;4975848;28;20409;-72
2023/01/07 12:09:03;;;;;;;7.82;7.03;;;13.10;96.70;;;;;;4975432;28;20061;-72
2023/01/07 12:11:35;;;;;;;10.77;7.85;;;13.10;96.70;;;;;;4951880;28;20054;-72
2023/01/07 12:14:07;;;;;;;8.15;6.25;;;13.00;96.70;;;;;;4982733;28;20133;-72
2023/01/07 12:16:35;;;;;;;8.95;6.57;;;13.00;96.70;;;;;;4975235;28;20126;-72
2023/01/07 12:19:22;;;;;;;8.73;6.95;;;12.90;96.70;;;;;;4955017;28;20128;-72
2023/01/07 12:22:00;;;;;;;8.20;6.50;;;12.90;96.70;;;;;;4947950;28;20046;-72
2023/01/07 12:25:01;;;;;;;8.25;7.32;;;12.90;96.70;;;;;;4965108;28;20046;-72
2023/01/07 12:27:40;;;;;;;11.57;8.27;;;12.90;96.70;;;;;;4961805;28;20113;-72
2023/01/07 12:30:41;;;;;;;8.60;6.80;;;13.00;96.70;;;;;;4977075;28;20057;-72
2023/01/07 12:33:19;;;;;;;8.43;7.03;;;13.00;96.70;;;;;;4959797;28;20066;-72
2023/01/07 12:35:48;;;;;;;7.18;6.45;;;12.90;96.70;;;;;;4960204;28;20489;-72
2023/01/07 12:38:20;;;;;;;7.35;6.43;;;13.00;96.70;;;;;;4959945;28;20049;-72
2023/01/07 12:40:53;;;;;;;13.63;9.73;;;13.00;96.70;;;;;;4963580;28;20138;-72
2023/01/07 12:43:33;;;;;;;10.20;8.20;;;12.90;96.70;;;;;;4964469;28;20074;-72
2023/01/07 12:46:04;;;;;;;9.57;7.72;;;12.90;96.70;;;;;;4971566;28;20070;-72
2023/01/07 12:48:39;;;;;;;9.60;7.78;;;13.00;96.70;;;;;;4953870;28;20057;-72
2023/01/07 12:51:13;;;;;;;9.45;7.70;;;13.00;96.70;;;;;;4962077;28;20043;-72
2023/01/07 12:53:47;;;;;;;8.60;7.22;;;13.00;96.70;;;;;;4947314;28;20051;-72
2023/01/07 12:56:21;;;;;;;9.88;7.20;;;13.00;96.70;;;;;;4961750;28;20127;-72
2023/01/07 12:59:04;;;;;;;7.00;6.30;;;13.00;96.70;;;;;;4964132;28;20543;-72
2023/01/07 13:01:37;;;;;;;8.40;5.60;;;13.00;96.70;;;;;;4957794;28;20053;-72
2023/01/07 13:04:15;;;;;;;9.60;6.72;;;12.90;96.70;;;;;;4946647;28;20484;-72